sensor_id;sensor_type;location;lat;lon;timestamp;pressure;altitude;pressure_sealevel;temperature;humidity
62926;BME280;55732;52.248;-0.844;2023-08-07T00:00:36;101111.59;;;12.33;78.39
62926;BME280;55732;52.248;-0.844;2023-08-07T00:03:01;101110.53;;;12.32;78.53
62926;BME280;55732;52.248;-0.844;2023-08-07T00:05:27;101107.89;;;12.30;78.59
62926;BME280;55732;52.248;-0.844;2023-08-07T00:07:53;101102.94;;;12.29;78.69
62926;BME280;55732;52.248;-0.844;2023-08-07T00:10:18;101108.23;;;12.27;78.66
62926;BME280;55732;52.248;-0.844;2023-08-07T00:12:44;101105.77;;;12.23;78.75
62926;BME280;55732;52.248;-0.844;2023-08-07T00:15:10;101105.59;;;12.21;79.09
62926;BME280;55732;52.248;-0.844;2023-08-07T00:17:36;101103.29;;;12.18;79.18
62926;BME280;55732;52.248;-0.844;2023-08-07T00:20:02;101101.17;;;12.16;79.38
62926;BME280;55732;52.248;-0.844;2023-08-07T00:22:27;101099.06;;;12.14;79.47
62926;BME280;55732;52.248;-0.844;2023-08-07T00:24:53;101102.94;;;12.11;79.36
62926;BME280;55732;52.248;-0.844;2023-08-07T00:27:19;101103.98;;;12.08;79.34
62926;BME280;55732;52.248;-0.844;2023-08-07T00:29:44;101103.97;;;12.05;79.36
62926;BME280;55732;52.248;-0.844;2023-08-07T00:32:10;101103.64;;;12.03;79.70
62926;BME280;55732;52.248;-0.844;2023-08-07T00:34:35;101103.63;;;12.04;79.77
62926;BME280;55732;52.248;-0.844;2023-08-07T00:37:00;101105.05;;;12.02;79.63
62926;BME280;55732;52.248;-0.844;2023-08-07T00:39:26;101103.45;;;12.00;79.80
62926;BME280;55732;52.248;-0.844;2023-08-07T00:41:51;101090.90;;;11.92;79.89
62926;BME280;55732;52.248;-0.844;2023-08-07T00:44:17;101096.02;;;11.94;79.91
62926;BME280;55732;52.248;-0.844;2023-08-07T00:46:43;101090.73;;;11.91;79.79
62926;BME280;55732;52.248;-0.844;2023-08-07T00:49:11;101093.39;;;11.88;79.95
62926;BME280;55732;52.248;-0.844;2023-08-07T00:51:38;101088.61;;;11.86;79.97
62926;BME280;55732;52.248;-0.844;2023-08-07T00:54:05;101091.77;;;11.82;79.93
62926;BME280;55732;52.248;-0.844;2023-08-07T00:56:31;101092.83;;;11.80;80.16
62926;BME280;55732;52.248;-0.844;2023-08-07T00:58:58;101090.37;;;11.78;80.30
62926;BME280;55732;52.248;-0.844;2023-08-07T01:01:25;101091.25;;;11.78;80.40
62926;BME280;55732;52.248;-0.844;2023-08-07T01:03:51;101089.30;;;11.77;80.44
62926;BME280;55732;52.248;-0.844;2023-08-07T01:06:16;101086.11;;;11.72;80.21
62926;BME280;55732;52.248;-0.844;2023-08-07T01:08:42;101088.19;;;11.69;80.29
62926;BME280;55732;52.248;-0.844;2023-08-07T01:14:00;101092.60;;;11.71;80.68
62926;BME280;55732;52.248;-0.844;2023-08-07T01:16:48;101094.01;;;11.71;80.66
62926;BME280;55732;52.248;-0.844;2023-08-07T01:19:28;101090.30;;;11.69;80.56
62926;BME280;55732;52.248;-0.844;2023-08-07T01:22:13;101090.13;;;11.68;80.84
62926;BME280;55732;52.248;-0.844;2023-08-07T01:24:41;101088.37;;;11.65;80.62
62926;BME280;55732;52.248;-0.844;2023-08-07T01:35:17;101074.07;;;11.64;81.21
62926;BME280;55732;52.248;-0.844;2023-08-07T01:37:46;101074.06;;;11.64;81.33
62926;BME280;55732;52.248;-0.844;2023-08-07T01:40:13;101069.65;;;11.63;81.09
62926;BME280;55732;52.248;-0.844;2023-08-07T01:42:39;101072.11;;;11.62;81.18
62926;BME280;55732;52.248;-0.844;2023-08-07T01:45:05;101073.34;;;11.59;81.19
62926;BME280;55732;52.248;-0.844;2023-08-07T01:47:31;101070.51;;;11.57;81.28
62926;BME280;55732;52.248;-0.844;2023-08-07T01:49:56;101074.04;;;11.57;81.35
62926;BME280;55732;52.248;-0.844;2023-08-07T01:52:22;101070.70;;;11.55;81.55
62926;BME280;55732;52.248;-0.844;2023-08-07T01:54:48;101073.52;;;11.54;81.56
62926;BME280;55732;52.248;-0.844;2023-08-07T01:57:13;101074.23;;;11.54;81.70
62926;BME280;55732;52.248;-0.844;2023-08-07T01:59:39;101074.77;;;11.53;81.70
62926;BME280;55732;52.248;-0.844;2023-08-07T02:02:04;101074.39;;;11.52;81.76
62926;BME280;55732;52.248;-0.844;2023-08-07T02:04:30;101076.86;;;11.52;81.92
62926;BME280;55732;52.248;-0.844;2023-08-07T02:06:55;101073.87;;;11.52;82.08
62926;BME280;55732;52.248;-0.844;2023-08-07T02:09:22;101072.63;;;11.52;82.19
62926;BME280;55732;52.248;-0.844;2023-08-07T02:11:47;101071.91;;;11.51;82.16
62926;BME280;55732;52.248;-0.844;2023-08-07T02:14:13;101071.02;;;11.49;82.31
62926;BME280;55732;52.248;-0.844;2023-08-07T02:16:38;101074.55;;;11.48;82.61
62926;BME280;55732;52.248;-0.844;2023-08-07T02:19:04;101076.84;;;11.48;82.63
62926;BME280;55732;52.248;-0.844;2023-08-07T02:21:29;101068.20;;;11.48;82.71
62926;BME280;55732;52.248;-0.844;2023-08-07T02:23:55;101068.20;;;11.47;82.60
62926;BME280;55732;52.248;-0.844;2023-08-07T02:26:20;101070.30;;;11.46;82.69
62926;BME280;55732;52.248;-0.844;2023-08-07T02:28:46;101069.27;;;11.43;82.43
62926;BME280;55732;52.248;-0.844;2023-08-07T02:31:11;101068.02;;;11.42;82.53
62926;BME280;55732;52.248;-0.844;2023-08-07T02:33:36;101076.13;;;11.40;82.50
62926;BME280;55732;52.248;-0.844;2023-08-07T02:36:02;101080.17;;;11.38;82.53
62926;BME280;55732;52.248;-0.844;2023-08-07T02:38:27;101081.03;;;11.37;82.97
62926;BME280;55732;52.248;-0.844;2023-08-07T02:40:53;101083.15;;;11.36;82.96
62926;BME280;55732;52.248;-0.844;2023-08-07T02:43:18;101081.39;;;11.36;83.08
62926;BME280;55732;52.248;-0.844;2023-08-07T02:45:44;101077.84;;;11.34;83.25
62926;BME280;55732;52.248;-0.844;2023-08-07T02:48:09;101078.55;;;11.34;82.99
62926;BME280;55732;52.248;-0.844;2023-08-07T02:50:35;101079.09;;;11.33;83.15
62926;BME280;55732;52.248;-0.844;2023-08-07T02:53:01;101081.91;;;11.31;83.07
62926;BME280;55732;52.248;-0.844;2023-08-07T02:55:27;101084.90;;;11.29;83.39
62926;BME280;55732;52.248;-0.844;2023-08-07T02:57:53;101083.30;;;11.28;83.36
62926;BME280;55732;52.248;-0.844;2023-08-07T03:00:19;101081.70;;;11.26;83.22
62926;BME280;55732;52.248;-0.844;2023-08-07T03:02:44;101081.69;;;11.23;83.30
62926;BME280;55732;52.248;-0.844;2023-08-07T03:05:10;101082.20;;;11.21;83.46
62926;BME280;55732;52.248;-0.844;2023-08-07T03:07:35;101082.56;;;11.20;83.61
62926;BME280;55732;52.248;-0.844;2023-08-07T03:10:01;101086.81;;;11.19;83.57
62926;BME280;55732;52.248;-0.844;2023-08-07T03:12:26;101085.39;;;11.19;83.63
62926;BME280;55732;52.248;-0.844;2023-08-07T03:14:52;101080.98;;;11.18;83.71
62926;BME280;55732;52.248;-0.844;2023-08-07T03:17:17;101083.98;;;11.17;83.97
62926;BME280;55732;52.248;-0.844;2023-08-07T03:19:43;101087.31;;;11.17;83.98
62926;BME280;55732;52.248;-0.844;2023-08-07T03:22:09;101089.24;;;11.15;84.08
62926;BME280;55732;52.248;-0.844;2023-08-07T03:24:34;101086.42;;;11.15;84.20
62926;BME280;55732;52.248;-0.844;2023-08-07T03:27:00;101090.64;;;11.14;84.33
62926;BME280;55732;52.248;-0.844;2023-08-07T03:29:25;101089.77;;;11.14;84.28
62926;BME280;55732;52.248;-0.844;2023-08-07T03:31:51;101086.95;;;11.15;84.55
62926;BME280;55732;52.248;-0.844;2023-08-07T03:34:17;101084.30;;;11.15;84.68
62926;BME280;55732;52.248;-0.844;2023-08-07T03:36:42;101083.24;;;11.15;84.83
62926;BME280;55732;52.248;-0.844;2023-08-07T03:39:08;101087.48;;;11.15;84.76
62926;BME280;55732;52.248;-0.844;2023-08-07T03:41:35;101085.35;;;11.13;85.07
62926;BME280;55732;52.248;-0.844;2023-08-07T03:44:00;101084.48;;;11.14;85.39
62926;BME280;55732;52.248;-0.844;2023-08-07T03:46:26;101083.25;;;11.16;85.65
62926;BME280;55732;52.248;-0.844;2023-08-07T03:48:51;101080.27;;;11.16;85.92
62926;BME280;55732;52.248;-0.844;2023-08-07T03:51:17;101080.28;;;11.19;86.05
62926;BME280;55732;52.248;-0.844;2023-08-07T03:53:42;101071.80;;;11.16;86.19
62926;BME280;55732;52.248;-0.844;2023-08-07T03:56:08;101081.33;;;11.21;86.25
62926;BME280;55732;52.248;-0.844;2023-08-07T03:58:33;101076.56;;;11.21;86.20
62926;BME280;55732;52.248;-0.844;2023-08-07T04:00:58;101081.15;;;11.22;86.29
62926;BME280;55732;52.248;-0.844;2023-08-07T04:03:24;101081.51;;;11.22;86.41
62926;BME280;55732;52.248;-0.844;2023-08-07T04:05:53;101079.39;;;11.21;86.37
62926;BME280;55732;52.248;-0.844;2023-08-07T04:08:20;101079.05;;;11.19;86.22
62926;BME280;55732;52.248;-0.844;2023-08-07T04:10:57;101079.04;;;11.19;86.39
62926;BME280;55732;52.248;-0.844;2023-08-07T04:13:22;101084.15;;;11.18;86.46
62926;BME280;55732;52.248;-0.844;2023-08-07T04:15:48;101077.81;;;11.19;86.54
62926;BME280;55732;52.248;-0.844;2023-08-07T04:18:14;101082.57;;;11.19;86.40
62926;BME280;55732;52.248;-0.844;2023-08-07T04:20:39;101080.98;;;11.18;86.52
62926;BME280;55732;52.248;-0.844;2023-08-07T04:23:05;101082.73;;;11.18;86.50
62926;BME280;55732;52.248;-0.844;2023-08-07T04:25:30;101083.80;;;11.17;86.67
62926;BME280;55732;52.248;-0.844;2023-08-07T04:27:55;101084.31;;;11.16;86.64
62926;BME280;55732;52.248;-0.844;2023-08-07T04:30:21;101088.35;;;11.15;86.67
62926;BME280;55732;52.248;-0.844;2023-08-07T04:32:46;101084.66;;;11.14;86.95
62926;BME280;55732;52.248;-0.844;2023-08-07T04:35:12;101083.59;;;11.14;86.96
62926;BME280;55732;52.248;-0.844;2023-08-07T04:37:37;101087.29;;;11.14;86.82
62926;BME280;55732;52.248;-0.844;2023-08-07T04:40:03;101088.17;;;11.14;86.88
62926;BME280;55732;52.248;-0.844;2023-08-07T04:42:29;101086.06;;;11.15;86.90
62926;BME280;55732;52.248;-0.844;2023-08-07T04:44:55;101086.95;;;11.16;86.97
62926;BME280;55732;52.248;-0.844;2023-08-07T04:47:21;101084.84;;;11.17;86.93
62926;BME280;55732;52.248;-0.844;2023-08-07T04:49:46;101084.67;;;11.18;86.85
62926;BME280;55732;52.248;-0.844;2023-08-07T04:52:12;101085.04;;;11.20;86.93
62926;BME280;55732;52.248;-0.844;2023-08-07T04:54:37;101086.45;;;11.24;86.91
62926;BME280;55732;52.248;-0.844;2023-08-07T04:57:03;101094.40;;;11.27;86.82
62926;BME280;55732;52.248;-0.844;2023-08-07T04:59:28;101093.71;;;11.29;86.96
62926;BME280;55732;52.248;-0.844;2023-08-07T05:01:56;101098.84;;;11.33;87.00
62926;BME280;55732;52.248;-0.844;2023-08-07T05:04:21;101100.09;;;11.38;87.08
62926;BME280;55732;52.248;-0.844;2023-08-07T05:06:47;101101.09;;;11.80;86.62
62926;BME280;55732;52.248;-0.844;2023-08-07T05:09:13;101095.21;;;13.07;84.94
62926;BME280;55732;52.248;-0.844;2023-08-07T05:11:39;101090.27;;;14.31;81.94
62926;BME280;55732;52.248;-0.844;2023-08-07T05:14:04;101085.73;;;15.15;79.28
62926;BME280;55732;52.248;-0.844;2023-08-07T05:16:30;101078.00;;;15.51;77.87
62926;BME280;55732;52.248;-0.844;2023-08-07T05:18:55;101085.55;;;15.84;76.52
62926;BME280;55732;52.248;-0.844;2023-08-07T05:21:21;101089.65;;;15.70;75.87
62926;BME280;55732;52.248;-0.844;2023-08-07T05:23:46;101088.69;;;15.63;75.62
62926;BME280;55732;52.248;-0.844;2023-08-07T05:26:13;101086.99;;;15.69;75.44
62926;BME280;55732;52.248;-0.844;2023-08-07T05:28:38;101089.90;;;15.65;74.92
62926;BME280;55732;52.248;-0.844;2023-08-07T05:31:03;101089.56;;;15.88;74.46
62926;BME280;55732;52.248;-0.844;2023-08-07T05:33:29;101090.69;;;16.19;73.26
62926;BME280;55732;52.248;-0.844;2023-08-07T05:35:54;101087.13;;;16.20;72.90
62926;BME280;55732;52.248;-0.844;2023-08-07T05:38:20;101085.15;;;16.21;72.81
62926;BME280;55732;52.248;-0.844;2023-08-07T05:40:46;101080.80;;;16.26;72.87
62926;BME280;55732;52.248;-0.844;2023-08-07T05:43:11;101078.91;;;16.43;72.32
62926;BME280;55732;52.248;-0.844;2023-08-07T05:45:37;101080.29;;;16.45;71.85
62926;BME280;55732;52.248;-0.844;2023-08-07T05:48:03;101077.45;;;16.56;71.53
62926;BME280;55732;52.248;-0.844;2023-08-07T05:50:28;101080.35;;;17.19;70.27
62926;BME280;55732;52.248;-0.844;2023-08-07T05:52:54;101080.37;;;17.52;69.63
62926;BME280;55732;52.248;-0.844;2023-08-07T05:55:19;101078.61;;;17.76;69.31
62926;BME280;55732;52.248;-0.844;2023-08-07T05:57:44;101081.00;;;17.95;68.35
62926;BME280;55732;52.248;-0.844;2023-08-07T06:00:10;101085.77;;;17.96;68.02
62926;BME280;55732;52.248;-0.844;2023-08-07T06:02:42;101090.91;;;18.05;67.47
62926;BME280;55732;52.248;-0.844;2023-08-07T06:05:08;101090.58;;;18.12;67.14
62926;BME280;55732;52.248;-0.844;2023-08-07T06:07:34;101088.16;;;18.72;66.37
62926;BME280;55732;52.248;-0.844;2023-08-07T06:10:00;101086.34;;;19.68;64.20
62926;BME280;55732;52.248;-0.844;2023-08-07T06:12:25;101086.30;;;21.02;62.24
62926;BME280;55732;52.248;-0.844;2023-08-07T06:14:50;101090.65;;;22.13;59.50
62926;BME280;55732;52.248;-0.844;2023-08-07T06:17:16;101091.75;;;21.91;59.28
62926;BME280;55732;52.248;-0.844;2023-08-07T06:19:41;101089.14;;;21.43;59.73
62926;BME280;55732;52.248;-0.844;2023-08-07T06:22:06;101089.13;;;21.09;59.97
62926;BME280;55732;52.248;-0.844;2023-08-07T06:24:32;101090.08;;;20.72;59.85
62926;BME280;55732;52.248;-0.844;2023-08-07T06:26:58;101093.55;;;20.33;60.66
62926;BME280;55732;52.248;-0.844;2023-08-07T06:29:23;101099.77;;;20.01;60.67
62926;BME280;55732;52.248;-0.844;2023-08-07T06:31:48;101101.72;;;19.68;60.96
62926;BME280;55732;52.248;-0.844;2023-08-07T06:34:14;101098.70;;;19.49;61.51
62926;BME280;55732;52.248;-0.844;2023-08-07T06:36:39;101094.90;;;19.51;61.31
62926;BME280;55732;52.248;-0.844;2023-08-07T06:39:04;101097.88;;;19.53;61.13
62926;BME280;55732;52.248;-0.844;2023-08-07T06:41:30;101097.61;;;19.24;61.37
62926;BME280;55732;52.248;-0.844;2023-08-07T06:43:56;101095.27;;;19.06;61.61
62926;BME280;55732;52.248;-0.844;2023-08-07T06:46:21;101102.05;;;18.88;61.80
62926;BME280;55732;52.248;-0.844;2023-08-07T06:48:51;101103.55;;;18.91;62.10
62926;BME280;55732;52.248;-0.844;2023-08-07T06:51:17;101105.79;;;19.19;61.86
62926;BME280;55732;52.248;-0.844;2023-08-07T06:53:42;101102.29;;;19.55;61.47
62926;BME280;55732;52.248;-0.844;2023-08-07T06:56:07;101104.06;;;19.90;60.87
62926;BME280;55732;52.248;-0.844;2023-08-07T06:58:33;101097.35;;;20.26;60.22
62926;BME280;55732;52.248;-0.844;2023-08-07T07:00:58;101097.91;;;20.58;59.61
62926;BME280;55732;52.248;-0.844;2023-08-07T07:03:23;101097.50;;;20.55;59.42
62926;BME280;55732;52.248;-0.844;2023-08-07T07:05:49;101100.40;;;20.37;59.66
62926;BME280;55732;52.248;-0.844;2023-08-07T07:08:15;101105.69;;;20.17;59.87
62926;BME280;55732;52.248;-0.844;2023-08-07T07:10:40;101101.69;;;19.97;59.99
62926;BME280;55732;52.248;-0.844;2023-08-07T07:13:06;101101.89;;;19.74;60.17
62926;BME280;55732;52.248;-0.844;2023-08-07T07:15:33;101098.11;;;19.57;60.54
62926;BME280;55732;52.248;-0.844;2023-08-07T07:17:58;101093.58;;;19.47;60.91
62926;BME280;55732;52.248;-0.844;2023-08-07T07:20:24;101093.89;;;19.54;60.62
62926;BME280;55732;52.248;-0.844;2023-08-07T07:22:52;101094.70;;;19.69;60.27
62926;BME280;55732;52.248;-0.844;2023-08-07T07:25:17;101097.23;;;19.56;60.60
62926;BME280;55732;52.248;-0.844;2023-08-07T07:27:43;101102.08;;;19.43;61.10
62926;BME280;55732;52.248;-0.844;2023-08-07T07:30:08;101102.80;;;19.42;61.53
62926;BME280;55732;52.248;-0.844;2023-08-07T07:32:34;101099.41;;;19.61;61.09
62926;BME280;55732;52.248;-0.844;2023-08-07T07:34:59;101101.38;;;19.90;60.82
62926;BME280;55732;52.248;-0.844;2023-08-07T07:37:25;101102.04;;;20.14;60.20
62926;BME280;55732;52.248;-0.844;2023-08-07T07:39:50;101100.33;;;20.50;59.77
62926;BME280;55732;52.248;-0.844;2023-08-07T07:42:16;101093.41;;;20.84;59.41
62926;BME280;55732;52.248;-0.844;2023-08-07T07:44:41;101093.59;;;21.10;58.71
62926;BME280;55732;52.248;-0.844;2023-08-07T07:47:07;101096.80;;;21.57;57.93
62926;BME280;55732;52.248;-0.844;2023-08-07T07:49:33;101092.41;;;22.39;56.34
62926;BME280;55732;52.248;-0.844;2023-08-07T07:51:59;101091.34;;;23.33;54.62
62926;BME280;55732;52.248;-0.844;2023-08-07T07:54:25;101092.05;;;25.61;51.38
62926;BME280;55732;52.248;-0.844;2023-08-07T07:56:50;101092.06;;;27.17;48.17
62926;BME280;55732;52.248;-0.844;2023-08-07T07:59:16;101092.92;;;28.41;45.99
62926;BME280;55732;52.248;-0.844;2023-08-07T08:01:41;101091.67;;;30.48;43.03
62926;BME280;55732;52.248;-0.844;2023-08-07T08:04:07;101095.21;;;31.70;40.67
62926;BME280;55732;52.248;-0.844;2023-08-07T08:06:32;101097.27;;;32.87;38.93
62926;BME280;55732;52.248;-0.844;2023-08-07T08:08:57;101107.76;;;34.02;36.74
62926;BME280;55732;52.248;-0.844;2023-08-07T08:11:24;101104.02;;;34.62;35.25
62926;BME280;55732;52.248;-0.844;2023-08-07T08:13:50;101101.23;;;35.12;34.17
62926;BME280;55732;52.248;-0.844;2023-08-07T08:16:15;101101.77;;;36.16;32.96
62926;BME280;55732;52.248;-0.844;2023-08-07T08:18:40;101101.02;;;36.47;32.54
62926;BME280;55732;52.248;-0.844;2023-08-07T08:21:06;101103.02;;;35.84;32.07
62926;BME280;55732;52.248;-0.844;2023-08-07T08:23:32;101100.37;;;36.12;31.53
62926;BME280;55732;52.248;-0.844;2023-08-07T08:25:57;101095.10;;;36.80;30.86
62926;BME280;55732;52.248;-0.844;2023-08-07T08:28:22;101094.25;;;37.33;29.96
62926;BME280;55732;52.248;-0.844;2023-08-07T08:30:48;101101.81;;;37.93;29.19
62926;BME280;55732;52.248;-0.844;2023-08-07T08:33:13;101101.21;;;38.60;28.25
62926;BME280;55732;52.248;-0.844;2023-08-07T08:35:40;101095.49;;;39.41;27.42
62926;BME280;55732;52.248;-0.844;2023-08-07T08:38:06;101091.98;;;40.04;26.56
62926;BME280;55732;52.248;-0.844;2023-08-07T08:40:31;101094.13;;;40.63;25.69
62926;BME280;55732;52.248;-0.844;2023-08-07T08:43:00;101088.91;;;41.05;25.03
62926;BME280;55732;52.248;-0.844;2023-08-07T08:45:27;101090.42;;;41.01;24.58
62926;BME280;55732;52.248;-0.844;2023-08-07T08:48:00;101092.16;;;41.56;24.48
62926;BME280;55732;52.248;-0.844;2023-08-07T08:50:26;101089.31;;;42.18;23.38
62926;BME280;55732;52.248;-0.844;2023-08-07T08:52:55;101092.15;;;42.52;23.19
62926;BME280;55732;52.248;-0.844;2023-08-07T08:55:21;101091.16;;;42.95;22.53
62926;BME280;55732;52.248;-0.844;2023-08-07T08:57:47;101094.23;;;42.52;22.54
62926;BME280;55732;52.248;-0.844;2023-08-07T09:00:14;101090.31;;;42.95;22.08
62926;BME280;55732;52.248;-0.844;2023-08-07T09:02:47;101089.98;;;43.53;21.59
62926;BME280;55732;52.248;-0.844;2023-08-07T09:05:18;101090.15;;;43.81;21.12
62926;BME280;55732;52.248;-0.844;2023-08-07T09:07:44;101089.56;;;44.26;20.43
62926;BME280;55732;52.248;-0.844;2023-08-07T09:10:12;101087.39;;;44.56;20.11
62926;BME280;55732;52.248;-0.844;2023-08-07T09:12:40;101084.77;;;44.82;19.77
62926;BME280;55732;52.248;-0.844;2023-08-07T09:15:08;101078.63;;;44.83;19.46
62926;BME280;55732;52.248;-0.844;2023-08-07T09:17:40;101078.17;;;44.99;19.42
62926;BME280;55732;52.248;-0.844;2023-08-07T09:20:08;101079.13;;;44.94;19.29
62926;BME280;55732;52.248;-0.844;2023-08-07T09:22:38;101077.44;;;44.85;19.05
62926;BME280;55732;52.248;-0.844;2023-08-07T09:25:03;101077.42;;;44.52;19.23
62926;BME280;55732;52.248;-0.844;2023-08-07T09:27:30;101073.03;;;44.37;19.29
